createdAt,value
2016-03-10T00:00:22.716Z,1000.1
2016-03-10T00:01:22.735Z,1000.13
2016-03-10T00:02:22.753Z,1000.12
2016-03-10T00:03:22.772Z,1000.13
2016-03-10T00:04:22.789Z,1000.2
2016-03-10T00:05:22.808Z,1000.21
2016-03-10T00:06:22.817Z,1000.22
2016-03-10T00:07:22.835Z,1000.18
2016-03-10T00:08:22.853Z,1000.19
2016-03-10T00:09:22.872Z,1000.18
2016-03-10T00:10:22.890Z,1000.2
2016-03-10T00:11:22.908Z,1000.22
2016-03-10T00:12:22.942Z,1000.2
2016-03-10T00:13:22.944Z,1000.21
2016-03-10T00:14:22.963Z,1000.29
2016-03-10T00:15:22.981Z,1000.31
2016-03-10T00:16:22.984Z,1000.29
2016-03-10T00:17:23.002Z,1000.29
2016-03-10T00:18:23.022Z,1000.3
2016-03-10T00:19:23.039Z,1000.31
2016-03-10T00:20:23.058Z,1000.38
2016-03-10T00:21:23.076Z,1000.4
2016-03-10T00:22:23.094Z,1000.42
2016-03-10T00:23:23.112Z,1000.43
2016-03-10T00:24:23.131Z,1000.44
2016-03-10T00:25:23.133Z,1000.44
2016-03-10T00:26:23.152Z,1000.47
2016-03-10T00:27:23.185Z,1000.5
2016-03-10T00:28:23.188Z,1000.53
2016-03-10T00:29:23.207Z,1000.51
2016-03-10T00:30:23.256Z,1000.51
2016-03-10T00:31:23.244Z,1000.55
2016-03-10T00:32:23.252Z,1000.53
2016-03-10T00:33:23.275Z,1000.57
2016-03-10T00:34:23.292Z,1000.55
2016-03-10T00:35:23.311Z,1000.58
2016-03-10T00:36:23.329Z,1000.59
2016-03-10T00:37:23.348Z,1000.6
2016-03-10T00:38:23.357Z,1000.58
2016-03-10T00:39:23.375Z,1000.57
2016-03-10T00:40:23.393Z,1000.57
2016-03-10T00:41:23.411Z,1000.58
2016-03-10T00:42:23.430Z,1000.58
2016-03-10T00:43:23.432Z,1000.61
2016-03-10T00:44:23.467Z,1000.58
2016-03-10T00:45:23.501Z,1000.54
2016-03-10T00:46:23.488Z,1000.54
2016-03-10T00:47:23.522Z,1000.58
2016-03-10T00:48:23.525Z,1000.58
2016-03-10T00:49:23.542Z,1000.62
2016-03-10T00:50:23.561Z,1000.61
2016-03-10T00:51:23.579Z,1000.62
2016-03-10T00:52:23.598Z,1000.67
2016-03-10T00:53:23.601Z,1000.58
2016-03-10T00:54:23.619Z,1000.65
2016-03-10T00:55:23.652Z,1000.62
2016-03-10T00:56:23.655Z,1000.61
2016-03-10T00:57:23.674Z,1000.63
2016-03-10T00:58:23.691Z,1000.63
2016-03-10T00:59:23.711Z,1000.64
2016-03-10T01:00:23.728Z,1000.63
2016-03-10T01:01:23.747Z,1000.64
2016-03-10T01:02:23.765Z,1000.66
2016-03-10T01:03:23.783Z,1000.64
2016-03-10T01:04:23.785Z,1000.67
2016-03-10T01:05:23.821Z,1000.66
2016-03-10T01:06:23.823Z,1000.69
2016-03-10T01:07:23.841Z,1000.68
2016-03-10T01:08:23.859Z,1000.67
2016-03-10T01:09:23.877Z,1000.72
2016-03-10T01:10:23.896Z,1000.69
2016-03-10T01:11:23.915Z,1000.72
2016-03-10T01:12:23.932Z,1000.72
2016-03-10T01:13:23.935Z,1000.69
2016-03-10T01:14:23.954Z,1000.73
2016-03-10T01:15:23.972Z,1000.72
2016-03-10T01:16:23.990Z,1000.73
2016-03-10T01:17:24.008Z,1000.75
2016-03-10T01:18:24.026Z,1000.72
2016-03-10T01:19:24.045Z,1000.75
2016-03-10T01:20:24.064Z,1000.72
2016-03-10T01:21:24.081Z,1000.72
2016-03-10T01:22:24.100Z,1000.71
2016-03-10T01:23:24.102Z,1000.72
2016-03-10T01:24:24.122Z,1000.77
2016-03-10T01:25:24.139Z,1000.71
2016-03-10T01:26:24.158Z,1000.73
2016-03-10T01:27:24.176Z,1000.75
2016-03-10T01:28:24.195Z,1000.72
2016-03-10T01:29:24.213Z,1000.77
2016-03-10T01:30:24.231Z,1000.8
2016-03-10T01:31:24.249Z,1000.76
2016-03-10T01:32:24.252Z,1000.82
2016-03-10T01:33:24.271Z,1000.82
2016-03-10T01:34:24.289Z,1000.83
2016-03-10T01:35:24.307Z,1000.84
2016-03-10T01:36:24.324Z,1000.85
2016-03-10T01:37:24.343Z,1000.86
2016-03-10T01:38:24.362Z,1000.88
2016-03-10T01:39:24.380Z,1000.89
2016-03-10T01:40:24.398Z,1000.85
2016-03-10T01:41:24.418Z,1000.87
2016-03-10T01:42:24.420Z,1000.9
2016-03-10T01:43:24.438Z,1000.91
2016-03-10T01:44:24.456Z,1000.91
2016-03-10T01:45:24.474Z,1000.9
2016-03-10T01:46:24.492Z,1000.91
2016-03-10T01:47:24.512Z,1000.95
2016-03-10T01:48:24.529Z,1000.93
2016-03-10T01:49:24.548Z,1000.98
2016-03-10T01:50:24.550Z,1000.93
2016-03-10T01:51:24.584Z,1000.98
2016-03-10T01:52:24.587Z,1000.97
2016-03-10T01:53:24.606Z,1000.95
2016-03-10T01:54:24.623Z,1000.91
2016-03-10T01:55:24.642Z,1000.97
2016-03-10T01:56:24.661Z,1000.94
2016-03-10T01:57:24.678Z,1000.94
2016-03-10T01:58:24.697Z,1000.93
2016-03-10T01:59:24.715Z,1000.96
2016-03-10T02:00:24.718Z,1000.99
2016-03-10T02:01:24.736Z,1000.96
2016-03-10T02:02:24.754Z,1000.97
2016-03-10T02:03:24.772Z,1000.99
2016-03-10T02:04:24.791Z,1000.96
2016-03-10T02:05:24.809Z,1001.02
2016-03-10T02:06:24.828Z,1001
2016-03-10T02:07:24.846Z,1001.04
2016-03-10T02:08:24.865Z,1001.02
2016-03-10T02:09:24.883Z,1001.02
2016-03-10T02:10:24.886Z,1001.04
2016-03-10T02:11:24.919Z,1001.01
2016-03-10T02:12:24.922Z,1001.04
2016-03-10T02:13:24.940Z,1001.03
2016-03-10T02:14:24.959Z,1001.03
2016-03-10T02:15:24.977Z,1001.06
2016-03-10T02:16:24.995Z,1001.04
2016-03-10T02:17:25.014Z,1001.05
2016-03-10T02:18:25.031Z,1001.15
2016-03-10T02:19:25.034Z,1001.11
2016-03-10T02:20:25.053Z,1001.14
2016-03-10T02:21:25.071Z,1001.16
2016-03-10T02:22:25.089Z,1001.14
2016-03-10T02:23:25.109Z,1001.16
2016-03-10T02:24:25.126Z,1001.17
2016-03-10T02:25:25.145Z,1001.19
2016-03-10T02:26:25.147Z,1001.2
2016-03-10T02:27:25.166Z,1001.2
2016-03-10T02:28:25.183Z,1001.22
2016-03-10T02:29:25.203Z,1001.21
2016-03-10T02:30:25.220Z,1001.23
2016-03-10T02:31:25.239Z,1001.25
2016-03-10T02:32:25.257Z,1001.3
2016-03-10T02:33:25.275Z,1001.28
2016-03-10T02:34:25.294Z,1001.31
2016-03-10T02:35:25.296Z,1001.29
2016-03-10T02:36:25.315Z,1001.29
2016-03-10T02:37:25.333Z,1001.32
2016-03-10T02:38:25.352Z,1001.28
2016-03-10T02:39:25.385Z,1001.28
2016-03-10T02:40:25.388Z,1001.29
2016-03-10T02:41:25.406Z,1001.32
2016-03-10T02:42:25.424Z,1001.33
2016-03-10T02:43:25.443Z,1001.36
2016-03-10T02:44:25.477Z,1001.35
2016-03-10T02:45:25.464Z,1001.39
2016-03-10T02:46:25.482Z,1001.42
2016-03-10T02:47:25.500Z,1001.42
2016-03-10T02:48:25.519Z,1001.43
2016-03-10T02:49:25.553Z,1001.44
2016-03-10T02:50:25.556Z,1001.45
2016-03-10T02:51:25.589Z,1001.47
2016-03-10T02:52:25.577Z,1001.46
2016-03-10T02:53:25.611Z,1001.49
2016-03-10T02:54:25.629Z,1001.52
2016-03-10T02:55:25.631Z,1001.55
2016-03-10T02:56:25.650Z,1001.54
2016-03-10T02:57:25.668Z,1001.58
2016-03-10T02:58:25.687Z,1001.6
2016-03-10T02:59:25.705Z,1001.61
2016-03-10T03:00:25.722Z,1001.63
2016-03-10T03:01:25.741Z,1001.63
2016-03-10T03:02:25.760Z,1001.65
2016-03-10T03:03:25.778Z,1001.67
2016-03-10T03:04:25.780Z,1001.66
2016-03-10T03:05:25.799Z,1001.65
2016-03-10T03:06:25.833Z,1001.67
2016-03-10T03:07:25.836Z,1001.71
2016-03-10T03:08:25.854Z,1001.71
2016-03-10T03:09:25.872Z,1001.72
2016-03-10T03:10:25.890Z,1001.71
2016-03-10T03:11:25.893Z,1001.72
2016-03-10T03:12:25.927Z,1001.72
2016-03-10T03:13:25.930Z,1001.76
2016-03-10T03:14:25.948Z,1001.73
2016-03-10T03:15:25.966Z,1001.74
2016-03-10T03:16:25.985Z,1001.78
2016-03-10T03:17:26.004Z,1001.72
2016-03-10T03:18:26.021Z,1001.78
2016-03-10T03:19:26.040Z,1001.8
2016-03-10T03:20:26.059Z,1001.81
2016-03-10T03:21:26.062Z,1001.8
2016-03-10T03:22:26.095Z,1001.77
2016-03-10T03:23:26.098Z,1001.8
2016-03-10T03:24:26.115Z,1001.83
2016-03-10T03:25:26.134Z,1001.81
2016-03-10T03:26:26.153Z,1001.83
2016-03-10T03:27:26.171Z,1001.87
2016-03-10T03:28:26.173Z,1001.87
2016-03-10T03:29:26.191Z,1001.85
2016-03-10T03:30:26.210Z,1001.9
2016-03-10T03:31:26.228Z,1001.91
2016-03-10T03:32:26.247Z,1001.95
2016-03-10T03:33:26.264Z,1001.97
2016-03-10T03:34:26.283Z,1001.97
2016-03-10T03:35:26.317Z,1001.98
2016-03-10T03:36:26.305Z,1001.97
2016-03-10T03:37:26.338Z,1001.98
2016-03-10T03:38:26.340Z,1002
2016-03-10T03:39:26.359Z,1002.02
2016-03-10T03:40:26.377Z,1002.03
2016-03-10T03:41:26.396Z,1002.06
2016-03-10T03:42:26.413Z,1002.09
2016-03-10T03:43:26.432Z,1002.06
2016-03-10T03:44:26.450Z,1002.11
2016-03-10T03:45:26.453Z,1002.11
2016-03-10T03:46:26.471Z,1002.07
2016-03-10T03:47:26.490Z,1002.09
2016-03-10T03:48:26.508Z,1002.13
2016-03-10T03:49:26.527Z,1002.09
2016-03-10T03:50:26.545Z,1002.14
2016-03-10T03:51:26.563Z,1002.18
2016-03-10T03:52:26.581Z,1002.2
2016-03-10T03:53:26.584Z,1002.24
2016-03-10T03:54:26.603Z,1002.25
2016-03-10T03:55:26.621Z,1002.31
2016-03-10T03:56:26.639Z,1002.3
2016-03-10T03:57:26.658Z,1002.24
2016-03-10T03:58:26.675Z,1002.28
2016-03-10T03:59:26.694Z,1002.28
2016-03-10T04:00:26.697Z,1002.28
2016-03-10T04:01:26.747Z,1002.28
2016-03-10T04:02:26.733Z,1002.28
2016-03-10T04:03:26.752Z,1002.3
2016-03-10T04:04:26.770Z,1002.32
2016-03-10T04:05:26.789Z,1002.33
2016-03-10T04:06:26.807Z,1002.35
2016-03-10T04:07:26.825Z,1002.38
2016-03-10T04:08:26.843Z,1002.39
2016-03-10T04:09:26.846Z,1002.37
2016-03-10T04:10:26.864Z,1002.35
2016-03-10T04:11:26.882Z,1002.3
2016-03-10T04:12:26.901Z,1002.35
2016-03-10T04:13:26.918Z,1002.31
2016-03-10T04:14:26.938Z,1002.4
2016-03-10T04:15:26.956Z,1002.41
2016-03-10T04:16:26.974Z,1002.41
2016-03-10T04:17:26.976Z,1002.44
2016-03-10T04:18:26.996Z,1002.44
2016-03-10T04:19:27.029Z,1002.46
2016-03-10T04:20:27.032Z,1002.45
2016-03-10T04:21:27.051Z,1002.44
2016-03-10T04:22:27.069Z,1002.45
2016-03-10T04:23:27.087Z,1002.44
2016-03-10T04:24:27.106Z,1002.48
2016-03-10T04:25:27.109Z,1002.49
2016-03-10T04:26:27.142Z,1002.49
2016-03-10T04:27:27.144Z,1002.5
2016-03-10T04:28:27.162Z,1002.49
2016-03-10T04:29:27.181Z,1002.51
2016-03-10T04:30:27.200Z,1002.49
2016-03-10T04:31:27.217Z,1002.55
2016-03-10T04:32:27.220Z,1002.55
2016-03-10T04:33:27.255Z,1002.57
2016-03-10T04:34:27.258Z,1002.6
2016-03-10T04:35:27.275Z,1002.6
2016-03-10T04:36:27.293Z,1002.62
2016-03-10T04:37:27.311Z,1002.61
2016-03-10T04:38:27.330Z,1002.62
2016-03-10T04:39:27.349Z,1002.59
2016-03-10T04:40:27.351Z,1002.6
2016-03-10T04:41:27.369Z,1002.59
2016-03-10T04:42:27.403Z,1002.6
2016-03-10T04:43:27.406Z,1002.63
2016-03-10T04:44:27.424Z,1002.58
2016-03-10T04:45:27.443Z,1002.68
2016-03-10T04:46:27.460Z,1002.65
2016-03-10T04:47:27.479Z,1002.64
2016-03-10T04:48:27.498Z,1002.68
2016-03-10T04:49:27.516Z,1002.7
2016-03-10T04:50:27.518Z,1002.68
2016-03-10T04:51:27.537Z,1002.72
2016-03-10T04:52:27.555Z,1002.75
2016-03-10T04:53:27.574Z,1002.76
2016-03-10T04:54:27.592Z,1002.79
2016-03-10T04:55:27.610Z,1002.8
2016-03-10T04:56:27.628Z,1002.77
2016-03-10T04:57:27.631Z,1002.77
2016-03-10T04:58:27.649Z,1002.78
2016-03-10T04:59:27.668Z,1002.84
2016-03-10T05:00:27.686Z,1002.84
2016-03-10T05:01:27.705Z,1002.82
2016-03-10T05:02:27.722Z,1002.79
2016-03-10T05:03:27.741Z,1002.85
2016-03-10T05:04:27.759Z,1002.85
2016-03-10T05:05:27.761Z,1002.85
2016-03-10T05:06:27.780Z,1002.83
2016-03-10T05:07:27.799Z,1002.87
2016-03-10T05:08:27.817Z,1002.87
2016-03-10T05:09:27.835Z,1002.86
2016-03-10T05:10:27.854Z,1002.94
2016-03-10T05:11:27.872Z,1002.93
2016-03-10T05:12:27.875Z,1002.9
2016-03-10T05:13:27.894Z,1002.95
2016-03-10T05:14:27.911Z,1002.93
2016-03-10T05:15:27.930Z,1002.96
2016-03-10T05:16:27.948Z,1002.98
2016-03-10T05:17:27.966Z,1002.97
2016-03-10T05:18:27.985Z,1002.98
2016-03-10T05:19:28.003Z,1002.99
2016-03-10T05:20:28.006Z,1002.96
2016-03-10T05:21:28.024Z,1003.03
2016-03-10T05:22:28.042Z,1003.05
2016-03-10T05:23:28.060Z,1003.02
2016-03-10T05:24:28.079Z,1003.04
2016-03-10T05:25:28.097Z,1003.07
2016-03-10T05:26:28.115Z,1003.08
2016-03-10T05:27:28.134Z,1003.05
2016-03-10T05:28:28.137Z,1003.08
2016-03-10T05:29:28.155Z,1003.08
2016-03-10T05:30:28.173Z,1003.08
2016-03-10T05:31:28.192Z,1003.1
2016-03-10T05:32:28.209Z,1003.13
2016-03-10T05:33:28.228Z,1003.14
2016-03-10T05:34:28.246Z,1003.13
2016-03-10T05:35:28.249Z,1003.16
2016-03-10T05:36:28.283Z,1003.16
2016-03-10T05:37:28.285Z,1003.17
2016-03-10T05:38:28.304Z,1003.2
2016-03-10T05:39:28.322Z,1003.2
2016-03-10T05:40:28.340Z,1003.15
2016-03-10T05:41:28.358Z,1003.18
2016-03-10T05:42:28.377Z,1003.24
2016-03-10T05:43:28.380Z,1003.22
2016-03-10T05:44:28.399Z,1003.25
2016-03-10T05:45:28.416Z,1003.28
2016-03-10T05:46:28.435Z,1003.28
2016-03-10T05:47:28.454Z,1003.28
2016-03-10T05:48:28.472Z,1003.36
2016-03-10T05:49:28.490Z,1003.39
2016-03-10T05:50:28.493Z,1003.39
2016-03-10T05:51:28.511Z,1003.42
2016-03-10T05:52:28.545Z,1003.42
2016-03-10T05:53:28.548Z,1003.46
2016-03-10T05:54:28.565Z,1003.46
2016-03-10T05:55:28.584Z,1003.47
2016-03-10T05:56:28.603Z,1003.43
2016-03-10T05:57:28.620Z,1003.45
2016-03-10T05:58:28.623Z,1003.48
2016-03-10T05:59:28.642Z,1003.52
2016-03-10T06:00:28.659Z,1003.5
2016-03-10T06:01:28.678Z,1003.56
2016-03-10T06:02:28.696Z,1003.55
2016-03-10T06:03:28.714Z,1003.56
2016-03-10T06:04:28.733Z,1003.57
2016-03-10T06:05:28.752Z,1003.6
2016-03-10T06:06:28.753Z,1003.62
2016-03-10T06:07:28.770Z,1003.64
2016-03-10T06:08:28.804Z,1003.64
2016-03-10T06:09:28.807Z,1003.67
2016-03-10T06:10:28.826Z,1003.68
2016-03-10T06:11:28.844Z,1003.69
2016-03-10T06:12:28.861Z,1003.72
2016-03-10T06:13:28.864Z,1003.76
2016-03-10T06:14:28.883Z,1003.76
2016-03-10T06:15:28.902Z,1003.76
2016-03-10T06:16:28.919Z,1003.77
2016-03-10T06:17:28.938Z,1003.79
2016-03-10T06:18:28.956Z,1003.8
2016-03-10T06:19:28.975Z,1003.77
2016-03-10T06:20:28.993Z,1003.78
2016-03-10T06:21:29.011Z,1003.8
2016-03-10T06:22:29.013Z,1003.78
2016-03-10T06:23:29.032Z,1003.79
2016-03-10T06:24:29.051Z,1003.85
2016-03-10T06:25:29.069Z,1003.85
2016-03-10T06:26:29.087Z,1003.87
2016-03-10T06:27:29.105Z,1003.87
2016-03-10T06:28:29.123Z,1003.92
2016-03-10T06:29:29.142Z,1003.87
2016-03-10T06:30:29.145Z,1003.9
2016-03-10T06:31:29.179Z,1003.86
2016-03-10T06:32:29.181Z,1003.91
2016-03-10T06:33:29.201Z,1003.9
2016-03-10T06:34:29.218Z,1003.89
2016-03-10T06:35:29.237Z,1003.91
2016-03-10T06:36:29.254Z,1003.92
2016-03-10T06:37:29.257Z,1003.96
2016-03-10T06:38:29.275Z,1003.98
2016-03-10T06:39:29.295Z,1003.99
2016-03-10T06:40:29.312Z,1004.01
2016-03-10T06:41:29.331Z,1003.98
2016-03-10T06:42:29.349Z,1004.01
2016-03-10T06:43:29.352Z,1004.02
2016-03-10T06:44:29.370Z,1004.01
2016-03-10T06:45:29.389Z,1004.02
2016-03-10T06:46:29.406Z,1004.06
2016-03-10T06:47:29.425Z,1004.08
2016-03-10T06:48:29.444Z,1004.11
2016-03-10T06:49:29.462Z,1004.07
2016-03-10T06:50:29.480Z,1004.11
2016-03-10T06:51:29.482Z,1004.14
2016-03-10T06:52:29.502Z,1004.14
2016-03-10T06:53:29.519Z,1004.16
2016-03-10T06:54:29.538Z,1004.17
2016-03-10T06:55:29.555Z,1004.19
2016-03-10T06:56:29.574Z,1004.19
2016-03-10T06:57:29.592Z,1004.18
2016-03-10T06:58:29.596Z,1004.24
2016-03-10T06:59:29.613Z,1004.3
2016-03-10T07:00:29.663Z,1004.29
2016-03-10T07:01:29.682Z,1004.31
2016-03-10T07:02:29.669Z,1004.32
2016-03-10T07:03:29.687Z,1004.33
2016-03-10T07:04:29.721Z,1004.32
2016-03-10T07:05:29.770Z,1004.38
2016-03-10T07:06:29.757Z,1004.39
2016-03-10T07:07:29.792Z,1004.37
2016-03-10T07:08:29.795Z,1004.41
2016-03-10T07:09:29.812Z,1004.37
2016-03-10T07:10:29.830Z,1004.39
2016-03-10T07:11:29.833Z,1004.42
2016-03-10T07:12:29.867Z,1004.39
2016-03-10T07:13:29.886Z,1004.41
2016-03-10T07:14:29.888Z,1004.46
2016-03-10T07:15:29.907Z,1004.47
2016-03-10T07:16:29.925Z,1004.52
2016-03-10T07:17:29.944Z,1004.5
2016-03-10T07:18:29.977Z,1004.47
2016-03-10T07:19:29.980Z,1004.5
2016-03-10T07:20:29.997Z,1004.51
2016-03-10T07:21:30.017Z,1004.51
2016-03-10T07:22:30.035Z,1004.49
2016-03-10T07:23:30.038Z,1004.5
2016-03-10T07:24:30.055Z,1004.55
2016-03-10T07:25:30.090Z,1004.58
2016-03-10T07:26:30.093Z,1004.56
2016-03-10T07:27:30.095Z,1004.55
2016-03-10T07:28:30.129Z,1004.56
2016-03-10T07:29:30.147Z,1004.62
2016-03-10T07:30:30.150Z,1004.59
2016-03-10T07:31:30.168Z,1004.62
2016-03-10T07:32:30.187Z,1004.6
2016-03-10T07:33:30.220Z,1004.61
2016-03-10T07:34:30.208Z,1004.59
2016-03-10T07:35:30.242Z,1004.62
2016-03-10T07:36:30.276Z,1004.66
2016-03-10T07:37:30.278Z,1004.66
2016-03-10T07:38:30.296Z,1004.69
2016-03-10T07:39:30.315Z,1004.68
2016-03-10T07:40:30.317Z,1004.72
2016-03-10T07:41:30.367Z,1004.7
2016-03-10T07:42:30.354Z,1004.7
2016-03-10T07:43:30.373Z,1004.74
2016-03-10T07:44:30.375Z,1004.74
2016-03-10T07:45:30.394Z,1004.74
2016-03-10T07:46:30.397Z,1004.74
2016-03-10T07:47:30.425Z,1004.76
2016-03-10T07:48:30.435Z,1004.8
2016-03-10T07:49:30.432Z,1004.77
2016-03-10T07:50:30.475Z,1004.82
2016-03-10T07:51:30.472Z,1004.87
2016-03-10T07:52:30.471Z,1004.83
2016-03-10T07:53:30.472Z,1004.87
2016-03-10T07:54:30.488Z,1004.89
2016-03-10T07:55:30.519Z,1004.89
2016-03-10T07:56:30.536Z,1004.88
2016-03-10T07:57:30.537Z,1004.93
2016-03-10T07:58:30.555Z,1004.98
2016-03-10T07:59:30.619Z,1004.94
2016-03-10T08:00:30.590Z,1004.98
2016-03-10T08:01:30.623Z,1005.02
2016-03-10T08:02:30.625Z,1005.02
2016-03-10T08:03:30.644Z,1004.96
2016-03-10T08:04:30.661Z,1005.03
2016-03-10T08:05:30.679Z,1005.02
2016-03-10T08:06:30.697Z,1005.05
2016-03-10T08:07:30.731Z,1005.07
2016-03-10T08:08:30.733Z,1005.06
2016-03-10T08:09:30.736Z,1005.09
2016-03-10T08:10:30.770Z,1005.09
2016-03-10T08:11:30.773Z,1005.08
2016-03-10T08:12:30.806Z,1005.14
2016-03-10T08:13:30.825Z,1005.15
2016-03-10T08:14:30.811Z,1005.11
2016-03-10T08:15:30.846Z,1005.17
2016-03-10T08:16:30.848Z,1005.16
2016-03-10T08:17:30.883Z,1005.17
2016-03-10T08:18:30.901Z,1005.22
2016-03-10T08:19:30.919Z,1005.24
2016-03-10T08:20:30.938Z,1005.29
2016-03-10T08:21:30.955Z,1005.3
2016-03-10T08:22:30.975Z,1005.29
2016-03-10T08:23:30.992Z,1005.27
2016-03-10T08:24:30.995Z,1005.35
2016-03-10T08:25:30.997Z,1005.35
2016-03-10T08:26:31.032Z,1005.35
2016-03-10T08:27:31.050Z,1005.36
2016-03-10T08:28:31.052Z,1005.42
2016-03-10T08:29:31.071Z,1005.41
2016-03-10T08:30:31.090Z,1005.42
2016-03-10T08:31:31.077Z,1005.4
2016-03-10T08:32:31.126Z,1005.43
2016-03-10T08:33:31.144Z,1005.45
2016-03-10T08:34:31.179Z,1005.46
2016-03-10T08:35:31.181Z,1005.45
2016-03-10T08:36:31.199Z,1005.47
2016-03-10T08:37:31.217Z,1005.44
2016-03-10T08:38:31.221Z,1005.47
2016-03-10T08:39:31.239Z,1005.51
2016-03-10T08:40:31.273Z,1005.48
2016-03-10T08:41:31.276Z,1005.51
2016-03-10T08:42:31.309Z,1005.53
2016-03-10T08:43:31.312Z,1005.53
2016-03-10T08:44:31.331Z,1005.57
2016-03-10T08:45:31.334Z,1005.6
2016-03-10T08:46:31.367Z,1005.59
2016-03-10T08:47:31.369Z,1005.58
2016-03-10T08:48:31.434Z,1005.58
2016-03-10T08:49:31.406Z,1005.63
2016-03-10T08:50:31.424Z,1005.62
2016-03-10T08:51:31.427Z,1005.65
2016-03-10T08:52:31.461Z,1005.72
2016-03-10T08:53:31.480Z,1005.71
2016-03-10T08:54:31.514Z,1005.71
2016-03-10T08:55:31.516Z,1005.71
2016-03-10T08:56:31.519Z,1005.74
2016-03-10T08:57:31.538Z,1005.78
2016-03-10T08:58:31.555Z,1005.76
2016-03-10T08:59:31.573Z,1005.77
2016-03-10T09:00:31.607Z,1005.76
2016-03-10T09:01:31.610Z,1005.77
2016-03-10T09:02:31.644Z,1005.8
2016-03-10T09:03:31.662Z,1005.79
2016-03-10T09:04:31.650Z,1005.78
2016-03-10T09:05:31.684Z,1005.79
2016-03-10T09:06:31.698Z,1005.84
2016-03-10T09:07:31.700Z,1005.82
2016-03-10T09:08:31.735Z,1005.86
2016-03-10T09:09:31.738Z,1005.86
2016-03-10T09:10:31.755Z,1005.86
2016-03-10T09:11:31.774Z,1005.9
2016-03-10T09:12:31.808Z,1005.9
2016-03-10T09:13:31.780Z,1005.91
2016-03-10T09:14:31.813Z,1005.94
2016-03-10T09:15:31.846Z,1005.92
2016-03-10T09:16:31.850Z,1005.97
2016-03-10T09:17:31.884Z,1005.97
2016-03-10T09:18:31.902Z,1005.99
2016-03-10T09:19:31.904Z,1006.01
2016-03-10T09:20:31.938Z,1005.98
2016-03-10T09:21:31.941Z,1006.01
2016-03-10T09:22:31.959Z,1005.97
2016-03-10T09:23:31.979Z,1005.98
2016-03-10T09:24:31.996Z,1006
2016-03-10T09:25:32.014Z,1006.06
2016-03-10T09:26:32.033Z,1006
2016-03-10T09:27:32.036Z,1006.01
2016-03-10T09:28:32.070Z,1006.03
2016-03-10T09:29:32.088Z,1006
2016-03-10T09:30:32.107Z,1006.03
2016-03-10T09:31:32.125Z,1006.04
2016-03-10T09:32:32.142Z,1006.04
2016-03-10T09:33:32.161Z,1006.06
2016-03-10T09:34:32.180Z,1006.08
2016-03-10T09:35:32.182Z,1006.08
2016-03-10T09:36:32.216Z,1006.08
2016-03-10T09:37:32.234Z,1006.1
2016-03-10T09:38:32.237Z,1006.11
2016-03-10T09:39:32.271Z,1006.09
2016-03-10T09:40:32.290Z,1006.1
2016-03-10T09:41:32.292Z,1006.16
2016-03-10T09:42:32.311Z,1006.12
2016-03-10T09:43:32.329Z,1006.15
2016-03-10T09:44:32.347Z,1006.13
2016-03-10T09:45:32.350Z,1006.16
2016-03-10T09:46:32.383Z,1006.13
2016-03-10T09:47:32.386Z,1006.19
2016-03-10T09:48:32.421Z,1006.14
2016-03-10T09:49:32.438Z,1006.11
2016-03-10T09:50:32.446Z,1006.17
2016-03-10T09:51:32.965Z,1006.17
2016-03-10T09:52:32.483Z,1006.16
2016-03-10T09:53:32.501Z,1006.15
2016-03-10T09:54:32.503Z,1006.2
2016-03-10T09:55:32.538Z,1006.13
2016-03-10T09:56:32.540Z,1006.21
2016-03-10T09:57:32.575Z,1006.24
2016-03-10T09:58:32.578Z,1006.21
2016-03-10T09:59:32.612Z,1006.25
2016-03-10T10:00:32.614Z,1006.25
2016-03-10T10:01:32.647Z,1006.29
2016-03-10T10:02:32.635Z,1006.27
2016-03-10T10:03:32.700Z,1006.24
2016-03-10T10:04:32.687Z,1006.25
2016-03-10T10:05:32.705Z,1006.3
2016-03-10T10:06:32.708Z,1006.25
2016-03-10T10:07:32.758Z,1006.23
2016-03-10T10:08:32.760Z,1006.32
2016-03-10T10:09:32.763Z,1006.26
2016-03-10T10:10:32.781Z,1006.31
2016-03-10T10:11:32.815Z,1006.34
2016-03-10T10:12:32.833Z,1006.33
2016-03-10T10:13:32.836Z,1006.38
2016-03-10T10:14:32.870Z,1006.33
2016-03-10T10:15:32.873Z,1006.36
2016-03-10T10:16:32.875Z,1006.43
2016-03-10T10:17:32.894Z,1006.39
2016-03-10T10:18:32.927Z,1006.41
2016-03-10T10:19:32.946Z,1006.42
2016-03-10T10:20:32.965Z,1006.41
2016-03-10T10:21:32.951Z,1006.43
2016-03-10T10:22:32.985Z,1006.4
2016-03-10T10:23:33.020Z,1006.42
2016-03-10T10:24:33.038Z,1006.4
2016-03-10T10:25:33.040Z,1006.4
2016-03-10T10:26:33.027Z,1006.36
2016-03-10T10:27:33.061Z,1006.39
2016-03-10T10:28:33.064Z,1006.37
2016-03-10T10:29:33.082Z,1006.41
2016-03-10T10:30:33.101Z,1006.4
2016-03-10T10:31:33.119Z,1006.4
2016-03-10T10:32:33.137Z,1006.39
2016-03-10T10:33:33.156Z,1006.4
2016-03-10T10:34:33.174Z,1006.4
2016-03-10T10:35:33.192Z,1006.44
2016-03-10T10:36:33.211Z,1006.41
2016-03-10T10:37:33.228Z,1006.39
2016-03-10T10:38:33.247Z,1006.39
2016-03-10T10:39:33.266Z,1006.43
2016-03-10T10:40:33.283Z,1006.42
2016-03-10T10:41:33.286Z,1006.45
2016-03-10T10:42:33.321Z,1006.43
2016-03-10T10:43:33.338Z,1006.44
2016-03-10T10:44:33.341Z,1006.43
2016-03-10T10:45:33.360Z,1006.51
2016-03-10T10:46:33.377Z,1006.49
2016-03-10T10:47:33.397Z,1006.51
2016-03-10T10:48:33.415Z,1006.51
2016-03-10T10:49:33.433Z,1006.51
2016-03-10T10:50:33.451Z,1006.55
2016-03-10T10:51:33.470Z,1006.56
2016-03-10T10:52:33.488Z,1006.57
2016-03-10T10:53:33.506Z,1006.55
2016-03-10T10:54:33.524Z,1006.6
2016-03-10T10:55:33.543Z,1006.57
2016-03-10T10:56:33.562Z,1006.6
2016-03-10T10:57:33.579Z,1006.63
2016-03-10T10:58:33.598Z,1006.61
2016-03-10T10:59:33.616Z,1006.61
2016-03-10T11:00:33.634Z,1006.61
2016-03-10T11:01:33.653Z,1006.59
2016-03-10T11:02:33.671Z,1006.65
2016-03-10T11:03:33.690Z,1006.6
2016-03-10T11:04:33.708Z,1006.61
2016-03-10T11:05:33.726Z,1006.62
2016-03-10T11:06:33.744Z,1006.61
2016-03-10T11:07:33.763Z,1006.61
2016-03-10T11:08:33.765Z,1006.61
2016-03-10T11:09:33.800Z,1006.66
2016-03-10T11:10:33.802Z,1006.65
2016-03-10T11:11:33.835Z,1006.67
2016-03-10T11:12:33.979Z,1006.62
2016-03-10T11:13:33.857Z,1006.65
2016-03-10T11:14:33.875Z,1006.65
2016-03-10T11:15:33.894Z,1006.65
2016-03-10T11:16:33.912Z,1006.64
2016-03-10T11:17:33.930Z,1006.62
2016-03-10T11:18:33.949Z,1006.65
2016-03-10T11:19:33.966Z,1006.68
2016-03-10T11:20:33.985Z,1006.66
2016-03-10T11:21:34.003Z,1006.65
2016-03-10T11:22:34.021Z,1006.62
2016-03-10T11:23:34.040Z,1006.65
2016-03-10T11:24:34.059Z,1006.68
2016-03-10T11:25:34.076Z,1006.65
2016-03-10T11:26:34.095Z,1006.64
2016-03-10T11:27:34.113Z,1006.66
2016-03-10T11:28:34.132Z,1006.65
2016-03-10T11:29:34.150Z,1006.67
2016-03-10T11:30:34.168Z,1006.66
2016-03-10T11:31:34.187Z,1006.66
2016-03-10T11:32:34.205Z,1006.68
2016-03-10T11:33:34.223Z,1006.67
2016-03-10T11:34:34.226Z,1006.67
2016-03-10T11:35:34.275Z,1006.65
2016-03-10T11:36:34.262Z,1006.68
2016-03-10T11:37:34.281Z,1006.66
2016-03-10T11:38:34.300Z,1006.65
2016-03-10T11:39:34.317Z,1006.68
2016-03-10T11:40:34.336Z,1006.68
2016-03-10T11:41:34.354Z,1006.67
2016-03-10T11:42:34.372Z,1006.62
2016-03-10T11:43:34.391Z,1006.66
2016-03-10T11:44:34.408Z,1006.65
2016-03-10T11:45:34.427Z,1006.64
2016-03-10T11:46:34.446Z,1006.66
2016-03-10T11:47:34.463Z,1006.65
2016-03-10T11:48:34.498Z,1006.67
2016-03-10T11:49:34.501Z,1006.63
2016-03-10T11:50:34.519Z,1006.68
2016-03-10T11:51:34.537Z,1006.69
2016-03-10T11:52:34.555Z,1006.72
2016-03-10T11:53:34.574Z,1006.69
2016-03-10T11:54:34.593Z,1006.7
2016-03-10T11:55:34.610Z,1006.7
2016-03-10T11:56:34.629Z,1006.67
2016-03-10T11:57:34.648Z,1006.69
2016-03-10T11:58:34.666Z,1006.71
2016-03-10T11:59:34.684Z,1006.69
2016-03-10T12:00:34.702Z,1006.72
2016-03-10T12:01:34.721Z,1006.72
2016-03-10T12:02:34.739Z,1006.72
2016-03-10T12:03:34.757Z,1006.72
2016-03-10T12:04:34.775Z,1006.71
2016-03-10T12:05:34.795Z,1006.69
2016-03-10T12:06:34.811Z,1006.72
2016-03-10T12:07:34.831Z,1006.75
2016-03-10T12:08:34.849Z,1006.76